sensor_id;sensor_type;location;lat;lon;timestamp;temperature;humidity
12303;DHT22;6214;48.012;7.862;2023-09-18T00:01:15;21.80;99.90
12303;DHT22;6214;48.012;7.862;2023-09-18T00:03:42;21.90;99.90
12303;DHT22;6214;48.012;7.862;2023-09-18T00:06:09;21.80;99.90
12303;DHT22;6214;48.012;7.862;2023-09-18T00:08:39;21.80;99.90
12303;DHT22;6214;48.012;7.862;2023-09-18T00:11:06;21.70;99.90
12303;DHT22;6214;48.012;7.862;2023-09-18T00:13:33;21.70;99.90
12303;DHT22;6214;48.012;7.862;2023-09-18T00:16:00;21.60;99.90
12303;DHT22;6214;48.012;7.862;2023-09-18T00:18:28;21.20;99.90
12303;DHT22;6214;48.012;7.862;2023-09-18T00:20:54;20.70;99.90
12303;DHT22;6214;48.012;7.862;2023-09-18T00:23:21;20.40;99.90
12303;DHT22;6214;48.012;7.862;2023-09-18T00:25:48;20.30;99.90
12303;DHT22;6214;48.012;7.862;2023-09-18T00:28:15;20.10;99.90
12303;DHT22;6214;48.012;7.862;2023-09-18T00:30:42;20.00;99.90
12303;DHT22;6214;48.012;7.862;2023-09-18T00:33:13;20.10;99.90
12303;DHT22;6214;48.012;7.862;2023-09-18T00:35:40;20.00;99.90
12303;DHT22;6214;48.012;7.862;2023-09-18T00:38:06;20.10;99.90
12303;DHT22;6214;48.012;7.862;2023-09-18T00:40:33;20.10;99.90
12303;DHT22;6214;48.012;7.862;2023-09-18T00:43:00;20.10;99.90
12303;DHT22;6214;48.012;7.862;2023-09-18T00:45:27;20.00;99.90
12303;DHT22;6214;48.012;7.862;2023-09-18T00:47:54;19.80;99.90
12303;DHT22;6214;48.012;7.862;2023-09-18T00:50:21;19.60;99.90
12303;DHT22;6214;48.012;7.862;2023-09-18T00:52:49;19.70;99.90
12303;DHT22;6214;48.012;7.862;2023-09-18T00:55:16;19.70;99.90
12303;DHT22;6214;48.012;7.862;2023-09-18T00:57:44;19.90;99.90
12303;DHT22;6214;48.012;7.862;2023-09-18T01:00:12;20.00;99.90
12303;DHT22;6214;48.012;7.862;2023-09-18T01:02:43;19.90;99.90
12303;DHT22;6214;48.012;7.862;2023-09-18T01:05:12;20.00;99.90
12303;DHT22;6214;48.012;7.862;2023-09-18T01:07:38;20.00;99.90
12303;DHT22;6214;48.012;7.862;2023-09-18T01:10:06;19.90;99.90
12303;DHT22;6214;48.012;7.862;2023-09-18T01:15:22;19.90;99.90
12303;DHT22;6214;48.012;7.862;2023-09-18T01:17:53;19.90;99.90
12303;DHT22;6214;48.012;7.862;2023-09-18T01:20:20;20.00;99.90
12303;DHT22;6214;48.012;7.862;2023-09-18T01:22:47;20.00;99.90
12303;DHT22;6214;48.012;7.862;2023-09-18T01:25:16;20.00;99.90
12303;DHT22;6214;48.012;7.862;2023-09-18T01:27:43;19.90;99.90
12303;DHT22;6214;48.012;7.862;2023-09-18T01:30:10;20.00;99.90
12303;DHT22;6214;48.012;7.862;2023-09-18T01:32:38;20.00;99.90
12303;DHT22;6214;48.012;7.862;2023-09-18T01:35:06;20.10;99.90
12303;DHT22;6214;48.012;7.862;2023-09-18T01:37:35;20.10;99.90
12303;DHT22;6214;48.012;7.862;2023-09-18T01:40:04;20.10;99.90
12303;DHT22;6214;48.012;7.862;2023-09-18T01:42:34;20.20;99.90
12303;DHT22;6214;48.012;7.862;2023-09-18T01:45:01;20.40;99.90
12303;DHT22;6214;48.012;7.862;2023-09-18T01:47:29;20.50;99.90
12303;DHT22;6214;48.012;7.862;2023-09-18T01:49:56;20.50;99.90
12303;DHT22;6214;48.012;7.862;2023-09-18T01:52:23;20.50;99.90
12303;DHT22;6214;48.012;7.862;2023-09-18T01:54:50;20.50;99.90
12303;DHT22;6214;48.012;7.862;2023-09-18T01:57:17;20.30;99.90
12303;DHT22;6214;48.012;7.862;2023-09-18T01:59:44;20.30;99.90
12303;DHT22;6214;48.012;7.862;2023-09-18T02:02:12;20.20;99.90
12303;DHT22;6214;48.012;7.862;2023-09-18T02:04:47;20.10;99.90
12303;DHT22;6214;48.012;7.862;2023-09-18T02:07:33;20.10;99.90
12303;DHT22;6214;48.012;7.862;2023-09-18T02:10:00;20.10;99.90
12303;DHT22;6214;48.012;7.862;2023-09-18T02:12:27;20.20;99.90
12303;DHT22;6214;48.012;7.862;2023-09-18T02:14:54;20.30;99.90
12303;DHT22;6214;48.012;7.862;2023-09-18T02:17:24;20.30;99.90
12303;DHT22;6214;48.012;7.862;2023-09-18T02:19:51;20.20;99.90
12303;DHT22;6214;48.012;7.862;2023-09-18T02:22:18;20.20;99.90
12303;DHT22;6214;48.012;7.862;2023-09-18T02:24:45;20.30;99.90
12303;DHT22;6214;48.012;7.862;2023-09-18T02:27:11;20.40;99.90
12303;DHT22;6214;48.012;7.862;2023-09-18T02:29:38;20.50;99.90
12303;DHT22;6214;48.012;7.862;2023-09-18T02:32:05;20.50;99.90
12303;DHT22;6214;48.012;7.862;2023-09-18T02:34:32;20.40;99.90
12303;DHT22;6214;48.012;7.862;2023-09-18T02:37:00;20.30;99.90
12303;DHT22;6214;48.012;7.862;2023-09-18T02:39:27;20.40;99.90
12303;DHT22;6214;48.012;7.862;2023-09-18T02:41:54;20.30;99.90
12303;DHT22;6214;48.012;7.862;2023-09-18T02:44:20;20.10;99.90
12303;DHT22;6214;48.012;7.862;2023-09-18T02:46:47;20.10;99.90
12303;DHT22;6214;48.012;7.862;2023-09-18T02:49:14;20.00;99.90
12303;DHT22;6214;48.012;7.862;2023-09-18T02:51:41;19.90;99.90
12303;DHT22;6214;48.012;7.862;2023-09-18T02:54:08;20.10;99.90
12303;DHT22;6214;48.012;7.862;2023-09-18T02:56:35;20.00;99.90
12303;DHT22;6214;48.012;7.862;2023-09-18T02:59:01;20.00;99.90
12303;DHT22;6214;48.012;7.862;2023-09-18T03:01:29;19.90;99.90
12303;DHT22;6214;48.012;7.862;2023-09-18T03:03:55;19.80;99.90
12303;DHT22;6214;48.012;7.862;2023-09-18T03:06:22;19.70;99.90
12303;DHT22;6214;48.012;7.862;2023-09-18T03:08:50;19.70;99.90
12303;DHT22;6214;48.012;7.862;2023-09-18T03:11:17;19.80;99.90
12303;DHT22;6214;48.012;7.862;2023-09-18T03:13:45;19.70;99.90
12303;DHT22;6214;48.012;7.862;2023-09-18T03:16:15;19.70;99.90
12303;DHT22;6214;48.012;7.862;2023-09-18T03:18:42;19.50;99.90
12303;DHT22;6214;48.012;7.862;2023-09-18T03:21:08;19.50;99.90
12303;DHT22;6214;48.012;7.862;2023-09-18T03:23:35;19.60;99.90
12303;DHT22;6214;48.012;7.862;2023-09-18T03:26:03;19.50;99.90
12303;DHT22;6214;48.012;7.862;2023-09-18T03:28:30;19.40;99.90
12303;DHT22;6214;48.012;7.862;2023-09-18T03:30:58;19.30;99.90
12303;DHT22;6214;48.012;7.862;2023-09-18T03:33:25;19.30;99.90
12303;DHT22;6214;48.012;7.862;2023-09-18T03:35:53;19.30;99.90
12303;DHT22;6214;48.012;7.862;2023-09-18T03:38:21;19.20;99.90
12303;DHT22;6214;48.012;7.862;2023-09-18T03:40:48;19.30;99.90
12303;DHT22;6214;48.012;7.862;2023-09-18T03:43:16;19.30;99.90
12303;DHT22;6214;48.012;7.862;2023-09-18T03:45:42;19.30;99.90
12303;DHT22;6214;48.012;7.862;2023-09-18T03:48:10;19.30;99.90
12303;DHT22;6214;48.012;7.862;2023-09-18T03:50:38;19.20;99.90
12303;DHT22;6214;48.012;7.862;2023-09-18T03:53:06;19.20;99.90
12303;DHT22;6214;48.012;7.862;2023-09-18T03:55:33;19.10;99.90
12303;DHT22;6214;48.012;7.862;2023-09-18T03:58:01;19.10;99.90
12303;DHT22;6214;48.012;7.862;2023-09-18T04:00:27;19.10;99.90
12303;DHT22;6214;48.012;7.862;2023-09-18T04:02:54;19.00;99.90
12303;DHT22;6214;48.012;7.862;2023-09-18T04:05:21;19.00;99.90
12303;DHT22;6214;48.012;7.862;2023-09-18T04:07:48;19.10;99.90
12303;DHT22;6214;48.012;7.862;2023-09-18T04:10:15;19.10;99.90
12303;DHT22;6214;48.012;7.862;2023-09-18T04:12:46;19.00;99.90
12303;DHT22;6214;48.012;7.862;2023-09-18T04:15:15;19.00;99.90
12303;DHT22;6214;48.012;7.862;2023-09-18T04:17:42;18.90;99.90
12303;DHT22;6214;48.012;7.862;2023-09-18T04:20:09;19.00;99.90
12303;DHT22;6214;48.012;7.862;2023-09-18T04:22:41;19.10;99.90
12303;DHT22;6214;48.012;7.862;2023-09-18T04:25:08;19.00;99.90
12303;DHT22;6214;48.012;7.862;2023-09-18T04:27:35;19.00;99.90
12303;DHT22;6214;48.012;7.862;2023-09-18T04:30:02;19.00;99.90
12303;DHT22;6214;48.012;7.862;2023-09-18T04:32:29;19.00;99.90
12303;DHT22;6214;48.012;7.862;2023-09-18T04:34:56;19.00;99.90
12303;DHT22;6214;48.012;7.862;2023-09-18T04:37:24;19.00;99.90
12303;DHT22;6214;48.012;7.862;2023-09-18T04:39:51;19.00;99.90
12303;DHT22;6214;48.012;7.862;2023-09-18T04:42:18;19.10;99.90
12303;DHT22;6214;48.012;7.862;2023-09-18T04:44:45;19.10;99.90
12303;DHT22;6214;48.012;7.862;2023-09-18T04:47:12;19.10;99.90
12303;DHT22;6214;48.012;7.862;2023-09-18T04:49:39;19.10;99.90
12303;DHT22;6214;48.012;7.862;2023-09-18T04:52:06;19.10;99.90
12303;DHT22;6214;48.012;7.862;2023-09-18T04:54:33;19.10;99.90
12303;DHT22;6214;48.012;7.862;2023-09-18T04:56:59;19.00;99.90
12303;DHT22;6214;48.012;7.862;2023-09-18T04:59:26;19.00;99.90
12303;DHT22;6214;48.012;7.862;2023-09-18T05:01:53;19.00;99.90
12303;DHT22;6214;48.012;7.862;2023-09-18T05:04:20;19.20;99.90
12303;DHT22;6214;48.012;7.862;2023-09-18T05:06:47;19.10;99.90
12303;DHT22;6214;48.012;7.862;2023-09-18T05:09:13;19.10;99.90
12303;DHT22;6214;48.012;7.862;2023-09-18T05:11:41;19.10;99.90
12303;DHT22;6214;48.012;7.862;2023-09-18T05:14:09;19.10;99.90
12303;DHT22;6214;48.012;7.862;2023-09-18T05:16:35;19.00;99.90
12303;DHT22;6214;48.012;7.862;2023-09-18T05:19:03;18.90;99.90
12303;DHT22;6214;48.012;7.862;2023-09-18T05:21:30;19.00;99.90
12303;DHT22;6214;48.012;7.862;2023-09-18T05:23:57;19.10;99.90
12303;DHT22;6214;48.012;7.862;2023-09-18T05:26:24;19.00;99.90
12303;DHT22;6214;48.012;7.862;2023-09-18T05:28:51;19.10;99.90
12303;DHT22;6214;48.012;7.862;2023-09-18T05:31:20;19.10;99.90
12303;DHT22;6214;48.012;7.862;2023-09-18T05:33:47;19.10;99.90
12303;DHT22;6214;48.012;7.862;2023-09-18T05:36:14;19.10;99.90
12303;DHT22;6214;48.012;7.862;2023-09-18T05:38:41;19.10;99.90
12303;DHT22;6214;48.012;7.862;2023-09-18T05:41:10;19.10;99.90
12303;DHT22;6214;48.012;7.862;2023-09-18T05:43:37;19.20;99.90
12303;DHT22;6214;48.012;7.862;2023-09-18T05:46:03;19.20;99.90
12303;DHT22;6214;48.012;7.862;2023-09-18T05:48:30;19.20;99.90
12303;DHT22;6214;48.012;7.862;2023-09-18T05:50:58;19.20;99.90
12303;DHT22;6214;48.012;7.862;2023-09-18T05:53:25;19.20;99.90
12303;DHT22;6214;48.012;7.862;2023-09-18T05:55:52;19.20;99.90
12303;DHT22;6214;48.012;7.862;2023-09-18T05:58:18;19.10;99.90
12303;DHT22;6214;48.012;7.862;2023-09-18T06:00:48;19.20;99.90
12303;DHT22;6214;48.012;7.862;2023-09-18T06:03:16;19.10;99.90
12303;DHT22;6214;48.012;7.862;2023-09-18T06:05:45;19.10;99.90
12303;DHT22;6214;48.012;7.862;2023-09-18T06:08:13;19.10;99.90
12303;DHT22;6214;48.012;7.862;2023-09-18T06:10:42;19.00;99.90
12303;DHT22;6214;48.012;7.862;2023-09-18T06:13:09;19.00;99.90
12303;DHT22;6214;48.012;7.862;2023-09-18T06:15:36;19.00;99.90
12303;DHT22;6214;48.012;7.862;2023-09-18T06:18:03;19.00;99.90
12303;DHT22;6214;48.012;7.862;2023-09-18T06:20:30;19.00;99.90
12303;DHT22;6214;48.012;7.862;2023-09-18T06:22:57;19.00;99.90
12303;DHT22;6214;48.012;7.862;2023-09-18T06:25:25;19.00;99.90
12303;DHT22;6214;48.012;7.862;2023-09-18T06:27:51;19.00;99.90
12303;DHT22;6214;48.012;7.862;2023-09-18T06:30:18;19.00;99.90
12303;DHT22;6214;48.012;7.862;2023-09-18T06:32:45;19.00;99.90
12303;DHT22;6214;48.012;7.862;2023-09-18T06:35:12;19.00;99.90
12303;DHT22;6214;48.012;7.862;2023-09-18T06:37:39;18.90;99.90
12303;DHT22;6214;48.012;7.862;2023-09-18T06:40:06;19.00;99.90
12303;DHT22;6214;48.012;7.862;2023-09-18T06:42:33;19.00;99.90
12303;DHT22;6214;48.012;7.862;2023-09-18T06:45:00;19.00;99.90
12303;DHT22;6214;48.012;7.862;2023-09-18T06:47:28;18.90;99.90
12303;DHT22;6214;48.012;7.862;2023-09-18T06:49:55;18.80;99.90
12303;DHT22;6214;48.012;7.862;2023-09-18T06:52:22;18.80;99.90
12303;DHT22;6214;48.012;7.862;2023-09-18T06:54:49;18.80;99.90
12303;DHT22;6214;48.012;7.862;2023-09-18T06:57:15;18.70;99.90
12303;DHT22;6214;48.012;7.862;2023-09-18T06:59:42;18.70;99.90
12303;DHT22;6214;48.012;7.862;2023-09-18T07:02:10;18.80;99.90
12303;DHT22;6214;48.012;7.862;2023-09-18T07:04:37;18.70;99.90
12303;DHT22;6214;48.012;7.862;2023-09-18T07:07:13;18.60;99.90
12303;DHT22;6214;48.012;7.862;2023-09-18T07:09:41;18.60;99.90
12303;DHT22;6214;48.012;7.862;2023-09-18T07:12:28;18.60;99.90
12303;DHT22;6214;48.012;7.862;2023-09-18T07:14:55;18.70;99.90
12303;DHT22;6214;48.012;7.862;2023-09-18T07:17:22;18.60;99.90
12303;DHT22;6214;48.012;7.862;2023-09-18T07:19:49;18.70;99.90
12303;DHT22;6214;48.012;7.862;2023-09-18T07:22:16;18.70;99.90
12303;DHT22;6214;48.012;7.862;2023-09-18T07:24:42;18.60;99.90
12303;DHT22;6214;48.012;7.862;2023-09-18T07:27:12;18.50;99.90
12303;DHT22;6214;48.012;7.862;2023-09-18T07:29:39;18.50;99.90
12303;DHT22;6214;48.012;7.862;2023-09-18T07:32:06;18.40;99.90
12303;DHT22;6214;48.012;7.862;2023-09-18T07:34:33;18.50;99.90
12303;DHT22;6214;48.012;7.862;2023-09-18T07:37:01;18.50;99.90
12303;DHT22;6214;48.012;7.862;2023-09-18T07:39:28;18.60;99.90
12303;DHT22;6214;48.012;7.862;2023-09-18T07:41:56;18.50;99.90
12303;DHT22;6214;48.012;7.862;2023-09-18T07:44:24;18.50;99.90
12303;DHT22;6214;48.012;7.862;2023-09-18T07:46:51;18.40;99.90
12303;DHT22;6214;48.012;7.862;2023-09-18T07:49:17;18.50;99.90
12303;DHT22;6214;48.012;7.862;2023-09-18T07:51:46;18.40;99.90
12303;DHT22;6214;48.012;7.862;2023-09-18T07:54:14;18.50;99.90
12303;DHT22;6214;48.012;7.862;2023-09-18T07:56:42;18.50;99.90
12303;DHT22;6214;48.012;7.862;2023-09-18T07:59:10;18.60;99.90
12303;DHT22;6214;48.012;7.862;2023-09-18T08:01:37;18.50;99.90
12303;DHT22;6214;48.012;7.862;2023-09-18T08:04:05;18.50;99.90
12303;DHT22;6214;48.012;7.862;2023-09-18T08:06:32;18.50;99.90
12303;DHT22;6214;48.012;7.862;2023-09-18T08:09:00;18.50;99.90
12303;DHT22;6214;48.012;7.862;2023-09-18T08:11:27;18.50;99.90
12303;DHT22;6214;48.012;7.862;2023-09-18T08:13:54;18.60;99.90
12303;DHT22;6214;48.012;7.862;2023-09-18T08:16:21;18.50;99.90
12303;DHT22;6214;48.012;7.862;2023-09-18T08:18:48;18.50;99.90
12303;DHT22;6214;48.012;7.862;2023-09-18T08:21:15;18.50;99.90
12303;DHT22;6214;48.012;7.862;2023-09-18T08:23:43;18.40;99.90
12303;DHT22;6214;48.012;7.862;2023-09-18T08:26:10;18.50;99.90
12303;DHT22;6214;48.012;7.862;2023-09-18T08:28:37;18.40;99.90
12303;DHT22;6214;48.012;7.862;2023-09-18T08:31:10;18.50;99.90
12303;DHT22;6214;48.012;7.862;2023-09-18T08:33:37;18.50;99.90
12303;DHT22;6214;48.012;7.862;2023-09-18T08:36:04;18.50;99.90
12303;DHT22;6214;48.012;7.862;2023-09-18T08:38:31;18.60;99.90
12303;DHT22;6214;48.012;7.862;2023-09-18T08:40:58;18.60;99.90
12303;DHT22;6214;48.012;7.862;2023-09-18T08:43:26;18.50;99.90
12303;DHT22;6214;48.012;7.862;2023-09-18T08:45:54;18.60;99.90
12303;DHT22;6214;48.012;7.862;2023-09-18T08:48:23;18.60;99.90
12303;DHT22;6214;48.012;7.862;2023-09-18T08:50:50;18.70;99.90
12303;DHT22;6214;48.012;7.862;2023-09-18T08:53:18;18.70;99.90
12303;DHT22;6214;48.012;7.862;2023-09-18T08:55:45;18.60;99.90
12303;DHT22;6214;48.012;7.862;2023-09-18T08:58:12;18.60;99.90
12303;DHT22;6214;48.012;7.862;2023-09-18T09:00:39;18.60;99.90
12303;DHT22;6214;48.012;7.862;2023-09-18T09:03:05;18.60;99.90
12303;DHT22;6214;48.012;7.862;2023-09-18T09:05:33;18.60;99.90
12303;DHT22;6214;48.012;7.862;2023-09-18T09:08:00;18.60;99.90
12303;DHT22;6214;48.012;7.862;2023-09-18T09:10:28;18.60;99.90
12303;DHT22;6214;48.012;7.862;2023-09-18T09:12:59;18.60;99.90
12303;DHT22;6214;48.012;7.862;2023-09-18T09:15:46;18.80;99.90
12303;DHT22;6214;48.012;7.862;2023-09-18T09:18:14;18.70;99.90
12303;DHT22;6214;48.012;7.862;2023-09-18T09:20:55;18.70;99.90
12303;DHT22;6214;48.012;7.862;2023-09-18T09:23:25;18.60;99.90
12303;DHT22;6214;48.012;7.862;2023-09-18T09:25:53;18.60;99.90
12303;DHT22;6214;48.012;7.862;2023-09-18T09:28:30;18.70;99.90
12303;DHT22;6214;48.012;7.862;2023-09-18T09:31:03;18.70;99.90
12303;DHT22;6214;48.012;7.862;2023-09-18T09:33:31;18.70;99.90
12303;DHT22;6214;48.012;7.862;2023-09-18T09:35:58;18.80;99.90
12303;DHT22;6214;48.012;7.862;2023-09-18T09:38:30;18.80;99.90
12303;DHT22;6214;48.012;7.862;2023-09-18T09:41:01;18.80;99.90
12303;DHT22;6214;48.012;7.862;2023-09-18T09:43:31;18.90;99.90
12303;DHT22;6214;48.012;7.862;2023-09-18T09:46:02;19.00;99.90
12303;DHT22;6214;48.012;7.862;2023-09-18T09:48:29;18.90;99.90
12303;DHT22;6214;48.012;7.862;2023-09-18T09:50:59;19.00;99.90
12303;DHT22;6214;48.012;7.862;2023-09-18T09:53:46;19.00;99.90
12303;DHT22;6214;48.012;7.862;2023-09-18T09:56:18;19.10;99.90
12303;DHT22;6214;48.012;7.862;2023-09-18T09:59:00;19.10;99.90
12303;DHT22;6214;48.012;7.862;2023-09-18T10:01:31;19.10;99.90
12303;DHT22;6214;48.012;7.862;2023-09-18T10:03:59;19.00;99.90
12303;DHT22;6214;48.012;7.862;2023-09-18T10:06:27;19.10;99.90
12303;DHT22;6214;48.012;7.862;2023-09-18T10:08:56;19.20;99.90
12303;DHT22;6214;48.012;7.862;2023-09-18T10:11:26;19.30;99.90
12303;DHT22;6214;48.012;7.862;2023-09-18T10:14:01;19.30;99.90
12303;DHT22;6214;48.012;7.862;2023-09-18T10:16:31;19.40;99.90
12303;DHT22;6214;48.012;7.862;2023-09-18T10:19:11;19.40;99.90
12303;DHT22;6214;48.012;7.862;2023-09-18T10:21:53;19.50;99.90
12303;DHT22;6214;48.012;7.862;2023-09-18T10:24:33;19.60;99.90
12303;DHT22;6214;48.012;7.862;2023-09-18T10:27:01;19.70;99.90
12303;DHT22;6214;48.012;7.862;2023-09-18T10:29:31;19.70;99.90
12303;DHT22;6214;48.012;7.862;2023-09-18T10:31:59;19.70;99.90
12303;DHT22;6214;48.012;7.862;2023-09-18T10:34:28;19.80;99.90
12303;DHT22;6214;48.012;7.862;2023-09-18T10:36:57;19.90;99.90
12303;DHT22;6214;48.012;7.862;2023-09-18T10:39:28;19.90;99.90
12303;DHT22;6214;48.012;7.862;2023-09-18T10:42:01;20.00;99.90
12303;DHT22;6214;48.012;7.862;2023-09-18T10:44:29;20.10;99.90
12303;DHT22;6214;48.012;7.862;2023-09-18T10:46:59;20.20;99.90
12303;DHT22;6214;48.012;7.862;2023-09-18T10:49:28;20.20;99.90
12303;DHT22;6214;48.012;7.862;2023-09-18T10:51:56;20.30;99.90
12303;DHT22;6214;48.012;7.862;2023-09-18T10:54:25;20.50;99.90
12303;DHT22;6214;48.012;7.862;2023-09-18T10:56:53;20.60;99.90
12303;DHT22;6214;48.012;7.862;2023-09-18T10:59:20;20.70;99.90
12303;DHT22;6214;48.012;7.862;2023-09-18T11:01:50;20.80;99.90
12303;DHT22;6214;48.012;7.862;2023-09-18T11:04:19;20.90;99.90
12303;DHT22;6214;48.012;7.862;2023-09-18T11:09:30;21.00;99.90
12303;DHT22;6214;48.012;7.862;2023-09-18T11:14:56;21.20;99.90
12303;DHT22;6214;48.012;7.862;2023-09-18T11:17:59;21.20;99.90
12303;DHT22;6214;48.012;7.862;2023-09-18T11:20:27;21.30;99.90
12303;DHT22;6214;48.012;7.862;2023-09-18T11:23:16;21.40;99.90
12303;DHT22;6214;48.012;7.862;2023-09-18T11:25:43;21.40;99.90
12303;DHT22;6214;48.012;7.862;2023-09-18T11:28:16;21.40;99.90
12303;DHT22;6214;48.012;7.862;2023-09-18T11:30:51;21.40;99.90
12303;DHT22;6214;48.012;7.862;2023-09-18T11:33:38;21.60;99.90
12303;DHT22;6214;48.012;7.862;2023-09-18T11:36:07;21.80;99.90
12303;DHT22;6214;48.012;7.862;2023-09-18T11:38:58;21.90;99.90
12303;DHT22;6214;48.012;7.862;2023-09-18T11:41:34;21.90;99.90
12303;DHT22;6214;48.012;7.862;2023-09-18T11:46:47;22.00;99.90
12303;DHT22;6214;48.012;7.862;2023-09-18T11:49:19;22.10;99.90
12303;DHT22;6214;48.012;7.862;2023-09-18T11:51:50;22.10;99.90
12303;DHT22;6214;48.012;7.862;2023-09-18T11:54:18;22.20;99.90
12303;DHT22;6214;48.012;7.862;2023-09-18T11:56:45;22.10;99.90
12303;DHT22;6214;48.012;7.862;2023-09-18T11:59:12;22.10;99.90
12303;DHT22;6214;48.012;7.862;2023-09-18T12:01:39;22.20;99.90
12303;DHT22;6214;48.012;7.862;2023-09-18T12:04:07;22.10;99.90
12303;DHT22;6214;48.012;7.862;2023-09-18T12:06:41;22.10;99.90
12303;DHT22;6214;48.012;7.862;2023-09-18T12:09:09;22.00;99.90
12303;DHT22;6214;48.012;7.862;2023-09-18T12:11:36;22.00;99.90
12303;DHT22;6214;48.012;7.862;2023-09-18T12:14:04;22.00;99.90
12303;DHT22;6214;48.012;7.862;2023-09-18T12:16:37;22.00;99.90
12303;DHT22;6214;48.012;7.862;2023-09-18T12:19:07;22.00;99.90
12303;DHT22;6214;48.012;7.862;2023-09-18T12:21:41;22.10;99.90
12303;DHT22;6214;48.012;7.862;2023-09-18T12:24:21;22.10;99.90
12303;DHT22;6214;48.012;7.862;2023-09-18T12:26:50;22.10;99.90
12303;DHT22;6214;48.012;7.862;2023-09-18T12:29:18;22.10;99.90
12303;DHT22;6214;48.012;7.862;2023-09-18T12:31:45;22.10;99.90
12303;DHT22;6214;48.012;7.862;2023-09-18T12:34:19;22.10;99.90
12303;DHT22;6214;48.012;7.862;2023-09-18T12:36:50;22.10;99.90
12303;DHT22;6214;48.012;7.862;2023-09-18T12:39:18;22.20;99.90
12303;DHT22;6214;48.012;7.862;2023-09-18T12:41:48;22.20;99.90
12303;DHT22;6214;48.012;7.862;2023-09-18T12:44:16;22.30;99.90
12303;DHT22;6214;48.012;7.862;2023-09-18T12:46:44;22.40;99.90
12303;DHT22;6214;48.012;7.862;2023-09-18T12:49:20;22.50;99.90
12303;DHT22;6214;48.012;7.862;2023-09-18T12:51:58;22.70;99.90
12303;DHT22;6214;48.012;7.862;2023-09-18T12:57:08;22.90;99.90
12303;DHT22;6214;48.012;7.862;2023-09-18T12:59:36;23.00;99.90
12303;DHT22;6214;48.012;7.862;2023-09-18T13:02:05;23.00;99.90
12303;DHT22;6214;48.012;7.862;2023-09-18T13:04:35;23.00;99.90
12303;DHT22;6214;48.012;7.862;2023-09-18T13:07:12;22.90;99.90
12303;DHT22;6214;48.012;7.862;2023-09-18T13:09:40;22.80;99.90
12303;DHT22;6214;48.012;7.862;2023-09-18T13:12:08;22.80;99.90
12303;DHT22;6214;48.012;7.862;2023-09-18T13:15:00;22.80;99.90
12303;DHT22;6214;48.012;7.862;2023-09-18T13:17:42;22.80;99.90
12303;DHT22;6214;48.012;7.862;2023-09-18T13:20:20;22.80;99.90
12303;DHT22;6214;48.012;7.862;2023-09-18T13:22:51;22.70;99.90
12303;DHT22;6214;48.012;7.862;2023-09-18T13:25:27;22.90;99.90
12303;DHT22;6214;48.012;7.862;2023-09-18T13:27:54;22.90;99.90
12303;DHT22;6214;48.012;7.862;2023-09-18T13:30:22;22.90;99.90
12303;DHT22;6214;48.012;7.862;2023-09-18T13:32:50;22.90;99.90
12303;DHT22;6214;48.012;7.862;2023-09-18T13:35:18;22.90;99.90
12303;DHT22;6214;48.012;7.862;2023-09-18T13:37:45;22.90;99.90
12303;DHT22;6214;48.012;7.862;2023-09-18T13:40:12;22.90;99.90
12303;DHT22;6214;48.012;7.862;2023-09-18T13:42:39;22.90;99.90
12303;DHT22;6214;48.012;7.862;2023-09-18T13:45:07;22.90;99.90
12303;DHT22;6214;48.012;7.862;2023-09-18T13:47:35;22.90;99.90
12303;DHT22;6214;48.012;7.862;2023-09-18T13:50:05;23.00;99.90
12303;DHT22;6214;48.012;7.862;2023-09-18T13:52:34;23.10;99.90
12303;DHT22;6214;48.012;7.862;2023-09-18T13:55:03;23.10;99.90
12303;DHT22;6214;48.012;7.862;2023-09-18T13:57:33;23.00;99.90
12303;DHT22;6214;48.012;7.862;2023-09-18T14:00:03;23.10;99.90
12303;DHT22;6214;48.012;7.862;2023-09-18T14:02:35;23.10;99.90
12303;DHT22;6214;48.012;7.862;2023-09-18T14:05:02;23.00;99.90
12303;DHT22;6214;48.012;7.862;2023-09-18T14:07:30;23.10;99.90
12303;DHT22;6214;48.012;7.862;2023-09-18T14:09:57;23.20;99.90
12303;DHT22;6214;48.012;7.862;2023-09-18T14:12:24;23.20;99.90
12303;DHT22;6214;48.012;7.862;2023-09-18T14:14:51;23.10;99.90
12303;DHT22;6214;48.012;7.862;2023-09-18T14:17:18;23.20;99.90
12303;DHT22;6214;48.012;7.862;2023-09-18T14:19:48;23.10;99.90
12303;DHT22;6214;48.012;7.862;2023-09-18T14:22:15;23.20;99.90
12303;DHT22;6214;48.012;7.862;2023-09-18T14:24:42;23.20;99.90
12303;DHT22;6214;48.012;7.862;2023-09-18T14:27:09;23.30;99.90
12303;DHT22;6214;48.012;7.862;2023-09-18T14:29:37;23.30;99.90
12303;DHT22;6214;48.012;7.862;2023-09-18T14:32:05;23.30;99.90
12303;DHT22;6214;48.012;7.862;2023-09-18T14:34:33;23.40;99.90
12303;DHT22;6214;48.012;7.862;2023-09-18T14:37:02;23.40;99.90
12303;DHT22;6214;48.012;7.862;2023-09-18T14:39:31;23.40;99.90
12303;DHT22;6214;48.012;7.862;2023-09-18T14:41:59;23.40;99.90
12303;DHT22;6214;48.012;7.862;2023-09-18T14:44:26;23.40;99.90
12303;DHT22;6214;48.012;7.862;2023-09-18T14:46:57;23.30;99.90
12303;DHT22;6214;48.012;7.862;2023-09-18T14:49:24;23.20;99.90
12303;DHT22;6214;48.012;7.862;2023-09-18T14:51:53;23.20;99.90
12303;DHT22;6214;48.012;7.862;2023-09-18T14:54:20;23.40;99.90
12303;DHT22;6214;48.012;7.862;2023-09-18T14:56:47;23.50;99.90
12303;DHT22;6214;48.012;7.862;2023-09-18T14:59:14;23.50;99.90
12303;DHT22;6214;48.012;7.862;2023-09-18T15:01:53;23.50;99.90
12303;DHT22;6214;48.012;7.862;2023-09-18T15:04:20;23.50;99.90
12303;DHT22;6214;48.012;7.862;2023-09-18T15:06:49;23.60;99.90
12303;DHT22;6214;48.012;7.862;2023-09-18T15:09:16;23.60;99.90
12303;DHT22;6214;48.012;7.862;2023-09-18T15:11:44;23.60;99.90
12303;DHT22;6214;48.012;7.862;2023-09-18T15:14:11;23.50;99.90
12303;DHT22;6214;48.012;7.862;2023-09-18T15:16:38;23.50;99.90
12303;DHT22;6214;48.012;7.862;2023-09-18T15:19:05;23.40;99.90
12303;DHT22;6214;48.012;7.862;2023-09-18T15:21:33;23.30;99.90
12303;DHT22;6214;48.012;7.862;2023-09-18T15:23:59;23.30;99.90
12303;DHT22;6214;48.012;7.862;2023-09-18T15:26:26;23.20;99.90
12303;DHT22;6214;48.012;7.862;2023-09-18T15:28:53;23.20;99.90
12303;DHT22;6214;48.012;7.862;2023-09-18T15:31:20;23.20;99.90
12303;DHT22;6214;48.012;7.862;2023-09-18T15:33:47;23.20;99.90
12303;DHT22;6214;48.012;7.862;2023-09-18T15:36:14;23.10;99.90
12303;DHT22;6214;48.012;7.862;2023-09-18T15:38:41;23.00;99.90
12303;DHT22;6214;48.012;7.862;2023-09-18T15:41:08;23.10;99.90
12303;DHT22;6214;48.012;7.862;2023-09-18T15:43:35;23.00;99.90
12303;DHT22;6214;48.012;7.862;2023-09-18T15:46:02;23.00;99.90
12303;DHT22;6214;48.012;7.862;2023-09-18T15:48:29;22.90;99.90
12303;DHT22;6214;48.012;7.862;2023-09-18T15:50:56;22.80;99.90
12303;DHT22;6214;48.012;7.862;2023-09-18T15:53:23;22.80;99.90
12303;DHT22;6214;48.012;7.862;2023-09-18T15:55:50;22.80;99.90
12303;DHT22;6214;48.012;7.862;2023-09-18T15:58:17;22.80;99.90
12303;DHT22;6214;48.012;7.862;2023-09-18T16:00:46;22.60;99.90
12303;DHT22;6214;48.012;7.862;2023-09-18T16:03:12;22.60;99.90
12303;DHT22;6214;48.012;7.862;2023-09-18T16:05:39;22.70;99.90
12303;DHT22;6214;48.012;7.862;2023-09-18T16:08:07;22.80;99.90